Terminal Aerodrome Forecast
Issued by NWS Sterling, VA

Current Version | Previous Version | Text Only | Print | Product List | Glossary Off
Versions: 1 2 3 4 5 6 7 8 9 10 11 12 13 14 15 16 17 18 19 20 21 22

000
FTUS41 KLWX 250537
TAFIAD
TAF
KIAD 250537Z 2506/2612 20006KT P6SM BKN100
     FM250700 VRB05KT P6SM SCT040 BKN080
     FM251200 27008KT P6SM SCT040
     FM252100 33005KT P6SM BKN200
     FM260300 VRB05KT P6SM SCT030 OVC120=

USA.gov is the U.S. government's official web portal to all federal, state and local government web resources and services.